Time;durP1;ratioP1;P1;durP2;ratioP2;P2;SDS_P1;SDS_P2;PMS_P1;PMS_P2;Temp;Humidity;BMP_temperature;BMP_pressure;BME280_temperature;BME280_humidity;BME280_pressure;Samples;Min_cycle;Max_cycle;Signal;HPM_P1;HPM_P2
2023/09/29 00:00:40;;;;;;;13.70;9.10;;;;;;;21.79;53.69;93815.91;6078041;23;20080;-91
2023/09/29 00:03:08;;;;;;;15.20;8.77;;;;;;;21.79;53.76;93815.91;6077012;23;20018;-92
2023/09/29 00:05:35;;;;;;;13.40;8.48;;;;;;;21.79;53.44;93824.16;6077824;23;20724;-92
2023/09/29 00:08:01;;;;;;;14.98;9.43;;;;;;;21.78;53.69;93822.66;6077704;23;20020;-94
2023/09/29 00:10:27;;;;;;;15.07;9.50;;;;;;;21.79;53.64;93816.63;6076455;23;20014;-92
2023/09/29 00:12:52;;;;;;;15.25;8.40;;;;;;;21.78;53.71;93808.91;6077892;23;20033;-93
2023/09/29 00:15:18;;;;;;;16.48;9.80;;;;;;;21.79;53.75;93816.63;6071176;23;20036;-92
2023/09/29 00:17:44;;;;;;;12.65;8.00;;;;;;;21.77;53.44;93808.16;6072626;23;20458;-92
2023/09/29 00:22:39;;;;;;;21.80;9.77;;;;;;;21.80;53.33;93804.38;6072946;23;20025;-92
2023/09/29 00:25:07;;;;;;;11.18;8.63;;;;;;;21.78;53.58;93798.63;6071745;23;20732;-91
2023/09/29 00:27:35;;;;;;;14.77;9.18;;;;;;;21.77;53.40;93797.16;6048569;23;20014;-92
2023/09/29 00:30:04;;;;;;;16.15;9.00;;;;;;;21.79;53.52;93802.13;6048686;23;20029;-91
2023/09/29 00:32:29;;;;;;;14.25;9.50;;;;;;;21.79;53.44;93805.63;6071642;23;20018;-91
2023/09/29 00:34:56;;;;;;;18.35;9.35;;;;;;;21.78;53.59;93801.41;6072133;23;20088;-90
2023/09/29 00:37:23;;;;;;;11.57;8.10;;;;;;;21.78;53.50;93806.91;6071462;23;20053;-92
2023/09/29 00:39:52;;;;;;;14.77;9.52;;;;;;;21.77;53.49;93805.41;6048332;23;20017;-92
2023/09/29 00:42:18;;;;;;;16.92;8.45;;;;;;;21.79;53.27;93805.63;6071949;23;20022;-92
2023/09/29 00:44:44;;;;;;;13.00;8.35;;;;;;;21.80;53.41;93800.88;6048578;23;20020;-92
2023/09/29 00:47:09;;;;;;;12.00;8.68;;;;;;;21.77;53.36;93793.66;6071722;23;20050;-91
2023/09/29 00:49:35;;;;;;;12.25;8.32;;;;;;;21.77;53.60;93804.66;6048326;23;20010;-91
2023/09/29 00:52:01;;;;;;;13.75;8.65;;;;;;;21.76;53.54;93803.19;6096954;23;20037;-93
2023/09/29 00:54:31;;;;;;;12.93;8.40;;;;;;;21.75;53.46;93798.94;6047450;23;20045;-92
2023/09/29 00:56:58;;;;;;;18.30;8.80;;;;;;;21.76;53.32;93792.16;6096417;23;20018;-92
2023/09/29 00:59:24;;;;;;;16.13;8.95;;;;;;;21.75;53.68;93799.69;6047842;23;20077;-91
2023/09/29 01:01:50;;;;;;;12.38;8.82;;;;;;;21.75;53.23;93804.44;6072742;23;20014;-92
2023/09/29 01:04:16;;;;;;;16.35;9.10;;;;;;;21.78;53.16;93798.63;6047323;23;20049;-91
2023/09/29 01:06:41;;;;;;;13.65;8.75;;;;;;;21.74;53.34;93789.94;6048607;23;20022;-93
2023/09/29 01:09:07;;;;;;;10.82;8.38;;;;;;;21.76;53.36;93800.44;6094663;23;20018;-92
2023/09/29 01:11:45;;;;;;;13.70;8.18;;;;;;;21.78;53.28;93795.16;6048143;23;20022;-91
2023/09/29 01:14:11;;;;;;;14.32;8.88;;;;;;;21.76;53.22;93792.91;6072897;23;20045;-92
2023/09/29 01:16:39;;;;;;;11.68;7.80;;;;;;;21.75;52.92;93794.19;6101086;23;20029;-91
2023/09/29 01:19:07;;;;;;;12.93;8.38;;;;;;;21.76;53.43;93792.91;6076288;23;20024;-91
2023/09/29 01:21:33;;;;;;;11.70;7.60;;;;;;;21.78;53.12;93793.13;6076809;23;20112;-92
2023/09/29 01:23:58;;;;;;;13.93;8.27;;;;;;;21.76;53.18;93795.66;6076933;23;20056;-92
2023/09/29 01:26:24;;;;;;;11.65;7.72;;;;;;;21.76;53.34;93787.41;6074983;23;20025;-92
2023/09/29 01:28:50;;;;;;;12.50;8.18;;;;;;;21.77;53.30;93796.41;6077136;23;20021;-91
2023/09/29 01:31:15;;;;;;;14.80;8.32;;;;;;;21.73;53.23;93799.47;6100301;23;20021;-92
2023/09/29 01:33:41;;;;;;;14.10;8.85;;;;;;;21.73;53.43;93791.22;6101222;23;20733;-92
2023/09/29 01:36:07;;;;;;;18.52;7.95;;;;;;;21.75;53.22;93793.44;6076901;23;20075;-92
2023/09/29 01:38:35;;;;;;;14.23;7.80;;;;;;;21.74;53.35;93794.69;6076222;23;20020;-91
2023/09/29 01:41:00;;;;;;;14.43;8.32;;;;;;;21.78;53.06;93793.13;6101051;23;20536;-92
2023/09/29 01:43:26;;;;;;;12.70;8.00;;;;;;;21.74;53.30;93789.94;6099260;23;20017;-92
2023/09/29 01:45:52;;;;;;;14.27;8.52;;;;;;;21.73;53.18;93787.72;6075786;23;20025;-91
2023/09/29 01:48:18;;;;;;;13.32;8.88;;;;;;;21.73;53.21;93787.72;6122965;23;20025;-92
2023/09/29 01:50:43;;;;;;;12.00;7.88;;;;;;;21.74;53.40;93786.44;6076389;23;20480;-92
2023/09/29 01:53:10;;;;;;;13.15;8.10;;;;;;;21.73;53.36;93782.94;6075758;23;20025;-90
2023/09/29 01:55:35;;;;;;;11.20;7.65;;;;;;;21.73;53.37;93787.72;6077317;23;20036;-93
2023/09/29 01:58:01;;;;;;;12.48;7.88;;;;;;;21.76;53.24;93787.41;6075192;23;20025;-93
2023/09/29 02:00:28;;;;;;;10.73;7.72;;;;;;;21.74;53.35;93792.69;6075264;23;20757;-91
2023/09/29 02:02:55;;;;;;;12.68;7.95;;;;;;;21.71;53.32;93790.97;6101116;23;20017;-91
2023/09/29 02:05:21;;;;;;;13.95;8.43;;;;;;;21.74;53.12;93792.69;6098546;23;20041;-92
2023/09/29 02:07:47;;;;;;;12.80;7.70;;;;;;;21.73;52.97;93784.97;6076339;23;20021;-93
2023/09/29 02:10:12;;;;;;;15.45;8.05;;;;;;;21.74;52.59;93783.69;6076164;23;20480;-91
2023/09/29 02:12:47;;;;;;;13.43;7.82;;;;;;;21.72;52.61;93778.72;6075870;23;20071;-91
2023/09/29 02:15:16;;;;;;;16.35;8.52;;;;;;;21.73;52.88;93785.69;6095188;23;20018;-92
2023/09/29 02:17:41;;;;;;;12.20;8.27;;;;;;;21.73;52.65;93782.94;6094601;23;20021;-91
2023/09/29 02:20:11;;;;;;;12.43;7.93;;;;;;;21.71;52.81;93781.97;6070452;23;20018;-92
2023/09/29 02:22:37;;;;;;;15.77;8.48;;;;;;;21.70;52.70;93786.75;6072653;23;20736;-92
2023/09/29 02:25:03;;;;;;;14.90;7.82;;;;;;;21.73;52.70;93782.22;6071410;23;20018;-91
2023/09/29 02:27:29;;;;;;;12.13;7.90;;;;;;;21.73;52.84;93779.47;6071155;23;20021;-92
2023/09/29 02:29:54;;;;;;;12.48;7.50;;;;;;;21.72;52.53;93780.72;6071624;23;20018;-92
2023/09/29 02:32:21;;;;;;;11.90;7.65;;;;;;;21.70;52.69;93786.00;6069421;23;20014;-93
2023/09/29 02:34:48;;;;;;;12.77;6.60;;;;;;;21.72;52.52;93786.97;6072489;23;20458;-92
2023/09/29 02:37:16;;;;;;;11.45;7.80;;;;;;;21.71;52.55;93790.25;6070051;23;20028;-92
2023/09/29 02:39:42;;;;;;;16.75;8.57;;;;;;;21.70;52.66;93778.50;6071374;23;20022;-91
2023/09/29 02:42:08;;;;;;;10.98;7.38;;;;;;;21.70;52.23;93789.50;6070029;23;20022;-92
2023/09/29 02:44:35;;;;;;;11.90;7.55;;;;;;;21.71;52.70;93790.25;6095595;23;20017;-93
2023/09/29 02:47:02;;;;;;;10.57;7.28;;;;;;;21.73;52.79;93791.22;6070826;23;20022;-93
2023/09/29 02:49:30;;;;;;;11.80;6.95;;;;;;;21.74;52.41;93784.44;6093914;23;20021;-92
2023/09/29 02:51:55;;;;;;;13.00;7.47;;;;;;;21.74;52.50;93778.19;6095869;23;20014;-93
2023/09/29 02:54:21;;;;;;;12.57;8.18;;;;;;;21.69;52.43;93777.00;6092644;23;20715;-92
2023/09/29 02:56:46;;;;;;;11.10;7.82;;;;;;;21.71;52.44;93784.75;6070644;23;20018;-93
2023/09/29 02:59:12;;;;;;;15.00;8.63;;;;;;;21.71;52.60;93776.47;6070622;23;20010;-92
2023/09/29 03:01:38;;;;;;;12.43;7.53;;;;;;;21.70;52.47;93780.50;6071770;23;20021;-91
2023/09/29 03:04:07;;;;;;;13.50;8.18;;;;;;;21.69;52.61;93779.00;6070669;23;20072;-92
2023/09/29 03:06:32;;;;;;;13.25;7.25;;;;;;;21.69;52.52;93779.75;6095800;23;20040;-93
2023/09/29 03:08:59;;;;;;;10.43;8.07;;;;;;;21.71;52.53;93774.47;6071603;23;20379;-92
2023/09/29 03:11:25;;;;;;;12.50;7.75;;;;;;;21.71;52.49;93777.22;6069745;23;20366;-92
2023/09/29 03:13:54;;;;;;;14.00;7.60;;;;;;;21.69;52.55;93771.50;6071683;23;20018;-91
2023/09/29 03:16:24;;;;;;;9.82;6.63;;;;;;;21.67;52.68;93776.78;6065015;23;20031;-91
2023/09/29 03:18:49;;;;;;;13.10;7.85;;;;;;;21.68;52.51;93764.50;6020964;23;20104;-91
2023/09/29 03:21:15;;;;;;;12.90;7.28;;;;;;;21.71;52.55;93771.72;6042717;23;20451;-93
2023/09/29 03:23:42;;;;;;;11.30;7.88;;;;;;;21.68;52.62;93774.78;6043595;23;20057;-91
2023/09/29 03:26:09;;;;;;;12.82;7.55;;;;;;;21.67;52.51;93774.03;6042533;23;20046;-91
2023/09/29 03:28:35;;;;;;;12.90;7.45;;;;;;;21.66;52.60;93771.81;6043401;23;20507;-92
2023/09/29 03:31:07;;;;;;;12.43;7.50;;;;;;;21.69;52.24;93777.00;6043650;23;20030;-93
2023/09/29 03:33:35;;;;;;;14.43;7.45;;;;;;;21.68;52.56;93764.50;6019979;23;20025;-92
2023/09/29 03:36:01;;;;;;;15.60;8.38;;;;;;;21.70;52.22;93775.00;6020018;23;20026;-93
2023/09/29 03:38:27;;;;;;;12.05;7.00;;;;;;;21.67;52.64;93779.53;6018649;23;20093;-91
2023/09/29 03:40:52;;;;;;;13.15;7.80;;;;;;;21.68;52.42;93777.53;6020339;23;20092;-93
2023/09/29 03:43:21;;;;;;;14.00;8.40;;;;;;;21.69;52.48;93779.00;6019329;23;20577;-92
2023/09/29 03:45:46;;;;;;;10.23;7.32;;;;;;;21.66;52.66;93763.53;6020741;23;20018;-92
2023/09/29 03:48:14;;;;;;;13.02;6.97;;;;;;;21.69;52.36;93768.00;6044321;23;20516;-91
2023/09/29 03:50:40;;;;;;;12.80;7.80;;;;;;;21.67;52.59;93773.28;6098159;23;20027;-92
2023/09/29 03:53:05;;;;;;;10.32;7.47;;;;;;;21.70;52.38;93778.50;6073810;23;20010;-92
2023/09/29 03:55:31;;;;;;;12.65;7.40;;;;;;;21.69;52.49;93774.25;6074092;23;20437;-93
2023/09/29 03:57:57;;;;;;;13.10;7.43;;;;;;;21.67;52.69;93768.53;6073475;23;20028;-92
2023/09/29 04:00:22;;;;;;;12.95;7.47;;;;;;;21.68;52.52;93772.03;6072481;23;20041;-93
2023/09/29 04:02:50;;;;;;;14.10;7.72;;;;;;;21.69;52.36;93768.00;6072901;23;20018;-92
2023/09/29 04:05:17;;;;;;;9.23;6.35;;;;;;;21.69;52.10;93774.25;6073825;23;20450;-92
2023/09/29 04:07:43;;;;;;;9.98;6.88;;;;;;;21.69;52.54;93773.50;6074236;23;20029;-92
2023/09/29 04:10:10;;;;;;;11.35;8.10;;;;;;;21.66;52.41;93769.78;6072776;23;20026;-91
2023/09/29 04:12:37;;;;;;;11.32;7.03;;;;;;;21.67;52.39;93776.78;6096985;23;20126;-92
2023/09/29 04:15:03;;;;;;;9.88;6.85;;;;;;;21.66;52.19;93774.56;6073653;23;20108;-92
2023/09/29 04:17:28;;;;;;;12.25;6.93;;;;;;;21.69;52.01;93773.50;6049594;23;20026;-92
2023/09/29 04:19:55;;;;;;;9.85;7.05;;;;;;;21.68;52.25;93778.28;6050667;23;20490;-91
2023/09/29 04:22:24;;;;;;;8.90;7.30;;;;;;;21.68;52.21;93781.03;6048636;23;20093;-91
2023/09/29 04:24:50;;;;;;;11.68;7.30;;;;;;;21.66;52.09;93775.28;6074891;23;20446;-92
2023/09/29 04:27:15;;;;;;;9.18;6.40;;;;;;;21.70;52.06;93781.25;6047939;23;20454;-91
2023/09/29 04:29:41;;;;;;;13.60;7.50;;;;;;;21.69;52.37;93788.00;6047164;23;20100;-93
2023/09/29 04:32:06;;;;;;;10.02;6.75;;;;;;;21.69;52.10;93788.00;6047588;23;20022;-93
2023/09/29 04:34:32;;;;;;;12.65;7.25;;;;;;;21.68;51.79;93783.03;6048083;23;20022;-92
2023/09/29 04:36:58;;;;;;;9.90;6.65;;;;;;;21.70;52.19;93786.00;6048965;23;20018;-92
2023/09/29 04:39:24;;;;;;;12.20;7.05;;;;;;;21.67;52.09;93776.78;6046971;23;20590;-92
2023/09/29 04:41:50;;;;;;;10.00;7.45;;;;;;;21.69;52.03;93790.00;6072804;23;20018;-92
2023/09/29 04:44:16;;;;;;;11.73;6.95;;;;;;;21.67;51.96;93796.03;6071915;23;20033;-92
2023/09/29 04:46:42;;;;;;;11.52;6.95;;;;;;;21.69;51.93;93795.53;6048303;23;20501;-93
2023/09/29 04:49:07;;;;;;;11.57;6.88;;;;;;;21.65;52.25;93795.81;6071547;23;20024;-93
2023/09/29 04:51:33;;;;;;;12.07;7.38;;;;;;;21.67;51.68;93801.53;6072354;23;20014;-92
2023/09/29 04:53:59;;;;;;;10.00;6.47;;;;;;;21.67;52.27;93804.28;6048652;23;20404;-93
2023/09/29 04:56:25;;;;;;;10.48;6.75;;;;;;;21.67;52.02;93801.53;6047188;23;20093;-91
2023/09/29 04:58:50;;;;;;;11.68;6.97;;;;;;;21.66;52.25;93796.56;6048450;23;20010;-91
2023/09/29 05:01:26;;;;;;;11.38;6.90;;;;;;;21.66;51.78;93808.31;6045935;23;20018;-92
2023/09/29 05:03:51;;;;;;;11.18;7.03;;;;;;;21.67;51.78;93809.06;6072020;23;20041;-93
2023/09/29 05:06:17;;;;;;;10.63;6.35;;;;;;;21.66;51.85;93799.31;6047438;23;20041;-92
2023/09/29 05:08:44;;;;;;;10.35;6.22;;;;;;;21.65;52.16;93797.84;6047667;23;20017;-92
2023/09/29 05:11:21;;;;;;;9.82;6.40;;;;;;;21.67;51.99;93818.06;6047655;23;20035;-92
2023/09/29 05:13:47;;;;;;;10.90;6.63;;;;;;;21.68;51.92;93805.78;6072473;23;20029;-93
2023/09/29 05:16:12;;;;;;;8.43;5.95;;;;;;;21.66;52.00;93810.31;6046986;23;20072;-93
2023/09/29 05:18:38;;;;;;;9.98;6.80;;;;;;;21.68;51.76;93802.28;6047731;23;20358;-92
2023/09/29 05:21:12;;;;;;;8.77;6.07;;;;;;;21.68;51.82;93805.78;6047775;23;20081;-93
2023/09/29 05:23:38;;;;;;;10.05;6.50;;;;;;;21.70;51.87;93811.50;6047353;23;20022;-93
2023/09/29 05:26:07;;;;;;;14.73;6.78;;;;;;;21.70;51.75;93805.25;6047253;23;20361;-92
2023/09/29 05:28:33;;;;;;;10.95;6.57;;;;;;;21.73;51.58;93806.97;6047702;23;20021;-91
2023/09/29 05:30:59;;;;;;;10.73;6.68;;;;;;;21.69;52.08;93810.03;6048257;23;20022;-92
2023/09/29 05:33:25;;;;;;;10.15;5.97;;;;;;;21.72;51.90;93806.22;6046673;23;20118;-92
2023/09/29 05:35:50;;;;;;;8.00;5.60;;;;;;;21.71;51.90;93809.50;6072085;23;20017;-91
2023/09/29 05:38:17;;;;;;;7.63;5.60;;;;;;;21.71;51.60;93815.75;6046518;23;20022;-91
2023/09/29 05:40:43;;;;;;;8.90;5.75;;;;;;;21.72;51.89;93820.00;6047582;23;20017;-91
2023/09/29 05:43:09;;;;;;;8.43;5.95;;;;;;;21.71;52.07;93824.00;6046942;23;20077;-92
2023/09/29 05:45:37;;;;;;;8.60;5.43;;;;;;;21.72;51.95;93811.72;6047910;23;20022;-92
2023/09/29 05:48:03;;;;;;;10.55;6.00;;;;;;;21.76;51.75;93820.44;6048062;23;20029;-92
2023/09/29 05:50:28;;;;;;;8.77;5.88;;;;;;;21.78;51.50;93822.66;6070618;23;20014;-92
2023/09/29 05:52:54;;;;;;;11.00;5.47;;;;;;;21.78;51.66;93820.66;6047938;23;20025;-91
2023/09/29 05:55:19;;;;;;;12.20;5.55;;;;;;;21.79;51.62;93813.16;6046440;23;20029;-93
2023/09/29 05:57:45;;;;;;;6.57;4.78;;;;;;;21.78;51.47;93820.66;6048629;23;20442;-92
2023/09/29 06:00:13;;;;;;;7.97;5.65;;;;;;;21.81;51.58;93824.38;6046057;23;20045;-91
2023/09/29 06:02:40;;;;;;;9.98;5.28;;;;;;;21.80;51.71;93823.63;6048355;23;20022;-92
2023/09/29 06:05:06;;;;;;;6.05;4.55;;;;;;;21.83;51.48;93824.59;6047721;23;20017;-92
2023/09/29 06:07:32;;;;;;;6.70;4.90;;;;;;;21.85;51.27;93822.81;6047750;23;20021;-92
2023/09/29 06:09:57;;;;;;;6.07;4.18;;;;;;;21.85;51.38;93830.31;6071765;23;20462;-89
2023/09/29 06:12:23;;;;;;;6.45;4.82;;;;;;;21.86;51.63;93826.31;6045824;23;20014;-93
2023/09/29 06:14:49;;;;;;;6.15;4.10;;;;;;;21.87;51.50;93836.03;6075513;23;20026;-92
2023/09/29 06:17:15;;;;;;;5.75;3.78;;;;;;;21.88;51.71;93827.25;6070383;23;20025;-91
2023/09/29 06:19:41;;;;;;;5.60;3.50;;;;;;;21.88;51.56;93832.75;6071525;23;20014;-91
2023/09/29 06:22:06;;;;;;;4.38;3.85;;;;;;;21.90;51.67;93841.22;6094557;23;20022;-92
2023/09/29 06:24:33;;;;;;;5.13;3.20;;;;;;;21.90;51.38;93835.72;6094307;23;20069;-92
2023/09/29 06:27:03;;;;;;;5.75;4.60;;;;;;;21.92;51.64;93840.72;6095246;23;20043;-91
2023/09/29 06:29:28;;;;;;;5.07;3.50;;;;;;;21.94;51.39;93848.44;6094447;23;20022;-92
2023/09/29 06:31:54;;;;;;;5.47;3.70;;;;;;;21.93;51.35;93847.69;6095478;23;20578;-92
2023/09/29 06:34:19;;;;;;;5.15;3.53;;;;;;;21.96;51.46;93846.66;6069786;23;20021;-92
2023/09/29 06:36:45;;;;;;;7.43;3.35;;;;;;;21.97;51.36;93853.66;6096044;23;20014;-92
2023/09/29 06:39:12;;;;;;;5.00;3.40;;;;;;;21.99;51.43;93853.88;6070500;23;20026;-93
2023/09/29 06:41:38;;;;;;;4.32;3.20;;;;;;;21.99;51.43;93847.63;6072203;23;20346;-93
2023/09/29 06:44:04;;;;;;;4.97;3.40;;;;;;;22.01;51.30;93853.38;6094681;23;20046;-92
2023/09/29 06:46:29;;;;;;;4.10;3.33;;;;;;;22.03;51.32;93853.59;6070538;23;20018;-93
2023/09/29 06:48:55;;;;;;;7.25;2.88;;;;;;;22.04;51.35;93855.84;6070606;23;20020;-92
2023/09/29 06:51:21;;;;;;;4.47;3.42;;;;;;;22.04;50.97;93866.84;6070279;23;20018;-92
2023/09/29 06:53:46;;;;;;;3.92;3.03;;;;;;;22.05;51.46;93857.31;6070875;23;20010;-92
2023/09/29 06:56:12;;;;;;;3.90;2.55;;;;;;;22.06;51.27;93858.81;6071047;23;20042;-92
2023/09/29 06:58:37;;;;;;;4.00;2.70;;;;;;;22.09;51.22;93865.25;6071089;23;20054;-92
2023/09/29 07:01:03;;;;;;;3.20;2.90;;;;;;;22.11;51.05;93862.72;6070150;23;20018;-93
2023/09/29 07:03:31;;;;;;;3.83;2.78;;;;;;;22.12;51.20;93866.97;6070293;23;20022;-93
2023/09/29 07:06:00;;;;;;;5.22;3.80;;;;;;;22.13;51.09;93876.72;6071923;23;20311;-92
2023/09/29 07:08:26;;;;;;;3.40;2.80;;;;;;;22.14;51.20;93867.19;6094059;23;20014;-92
2023/09/29 07:10:52;;;;;;;3.78;2.78;;;;;;;22.16;51.18;93870.16;6095654;23;20081;-93
2023/09/29 07:13:18;;;;;;;5.03;3.08;;;;;;;22.16;51.18;93879.16;6069038;23;20014;-92
2023/09/29 07:15:45;;;;;;;4.15;2.70;;;;;;;22.17;50.86;93875.16;6071360;23;20018;-92
2023/09/29 07:18:12;;;;;;;3.38;2.60;;;;;;;22.18;51.00;93864.88;6046996;23;20025;-92
2023/09/29 07:20:39;;;;;;;2.92;2.63;;;;;;;22.18;51.19;93873.88;6070978;23;20017;-91
2023/09/29 07:23:04;;;;;;;3.67;2.60;;;;;;;22.22;51.19;93868.06;6094314;23;20018;-93
2023/09/29 07:25:30;;;;;;;4.43;2.88;;;;;;;22.23;50.95;93872.31;6094668;23;20316;-92
2023/09/29 07:27:55;;;;;;;5.95;2.65;;;;;;;22.22;51.18;93868.81;6047053;23;20022;-94
2023/09/29 07:30:21;;;;;;;3.72;2.55;;;;;;;22.26;50.97;93873.28;6045250;23;20029;-91
2023/09/29 07:32:46;;;;;;;4.05;2.80;;;;;;;22.25;50.79;93858.00;6070711;23;20022;-92
2023/09/29 07:35:12;;;;;;;3.05;2.63;;;;;;;22.27;50.90;93869.25;6093381;23;20018;-91
2023/09/29 07:37:38;;;;;;;2.90;2.65;;;;;;;22.28;50.93;93870.75;6071185;23;20093;-92
2023/09/29 07:40:06;;;;;;;4.43;2.53;;;;;;;22.29;51.10;93864.72;6094522;23;20029;-91
2023/09/29 07:42:32;;;;;;;3.58;2.80;;;;;;;22.32;50.96;93868.41;6047176;23;20021;-92
2023/09/29 07:44:58;;;;;;;4.47;2.60;;;;;;;22.31;50.94;93870.41;6070718;23;20018;-90
2023/09/29 07:47:24;;;;;;;3.30;2.60;;;;;;;22.34;51.14;93880.38;6046221;23;20061;-90
2023/09/29 07:49:50;;;;;;;3.00;2.50;;;;;;;22.33;50.84;93873.38;6047549;23;20014;-91
2023/09/29 07:52:15;;;;;;;4.45;2.75;;;;;;;22.35;51.01;93875.63;6093623;23;20480;-92
2023/09/29 07:54:41;;;;;;;3.33;2.60;;;;;;;22.34;50.88;93874.88;6071511;23;20017;-93
2023/09/29 07:57:07;;;;;;;4.65;2.60;;;;;;;22.36;50.91;93883.34;6094310;23;20026;-92
2023/09/29 07:59:34;;;;;;;3.35;2.60;;;;;;;22.37;50.61;93881.34;6045896;23;20017;-93
2023/09/29 08:02:00;;;;;;;3.22;2.28;;;;;;;22.37;50.81;93887.59;6070844;23;20014;-93
2023/09/29 08:04:26;;;;;;;3.45;2.40;;;;;;;22.38;50.76;93891.84;6071428;23;20093;-92
2023/09/29 08:06:51;;;;;;;3.17;2.65;;;;;;;22.43;50.78;93895.78;6072551;23;20465;-92
2023/09/29 08:09:17;;;;;;;4.10;2.17;;;;;;;22.41;50.69;93904.56;6048167;23;20137;-92
2023/09/29 08:11:43;;;;;;;3.97;2.58;;;;;;;22.40;50.67;93896.81;6048621;23;20025;-92
2023/09/29 08:14:08;;;;;;;2.55;1.98;;;;;;;22.42;50.81;93911.56;6048533;23;20018;-93
2023/09/29 08:16:37;;;;;;;4.93;2.40;;;;;;;22.44;50.83;93914.53;6077870;23;20021;-93
2023/09/29 08:19:03;;;;;;;3.60;2.47;;;;;;;22.42;50.75;93908.81;6060462;23;20656;-92
2023/09/29 08:21:30;;;;;;;2.78;2.10;;;;;;;22.43;50.78;93912.31;6056931;23;20014;-93
2023/09/29 08:24:03;;;;;;;2.45;1.90;;;;;;;22.42;50.84;93911.56;6077728;23;20116;-93
2023/09/29 08:26:30;;;;;;;5.82;3.30;;;;;;;22.43;50.92;93915.81;6100256;23;20013;-93
2023/09/29 08:28:57;;;;;;;38.53;22.73;;;;;;;22.46;51.09;93914.75;6102268;23;20029;-92
2023/09/29 08:31:31;;;;;;;34.17;26.23;;;;;;;22.45;50.87;93926.31;6077842;23;20032;-95
2023/09/29 08:33:56;;;;;;;12.98;8.77;;;;;;;22.47;51.26;93921.00;6106608;23;20017;-94
2023/09/29 08:36:22;;;;;;;5.40;3.58;;;;;;;22.49;51.30;93924.00;6068028;23;20026;-92
2023/09/29 08:38:47;;;;;;;237.57;194.23;;;;;;;22.48;50.88;93928.75;6077451;23;20014;-93
2023/09/29 08:41:13;;;;;;;41.50;34.35;;;;;;;22.49;51.07;93927.50;6076693;23;20022;-91
2023/09/29 08:43:39;;;;;;;34.92;24.83;;;;;;;22.48;50.97;93928.00;6076472;23;20117;-92
2023/09/29 08:46:05;;;;;;;8.55;4.60;;;;;;;22.48;51.19;93923.25;6100584;23;20077;-93
2023/09/29 08:48:35;;;;;;;5.55;3.00;;;;;;;22.51;51.21;93924.94;6062140;23;20062;-94
2023/09/29 08:51:01;;;;;;;11.00;3.17;;;;;;;22.49;51.04;93929.50;6085245;23;20097;-93
2023/09/29 08:53:33;;;;;;;6.85;3.15;;;;;;;22.48;51.17;93928.75;6081531;23;20017;-93
2023/09/29 08:56:11;;;;;;;4.20;3.78;;;;;;;22.46;51.09;93933.31;6062366;23;20018;-94
2023/09/29 08:59:03;;;;;;;8.50;3.35;;;;;;;22.48;51.21;93925.25;6037481;23;20020;-94
2023/09/29 09:01:33;;;;;;;7.75;3.60;;;;;;;22.46;51.03;93927.78;5948341;23;21837;-94
2023/09/29 09:04:13;;;;;;;6.63;4.30;;;;;;;22.47;50.93;93940.28;5967082;23;20032;-93
2023/09/29 09:07:17;;;;;;;;;;;;;;;;;;;;;
2023/09/29 09:09:48;;;;;;;4.72;4.15;;;;;;;22.46;51.15;93936.06;5898516;23;20083;-95
2023/09/29 09:12:40;;;;;;;6.30;4.45;;;;;;;22.44;51.32;93935.84;5959909;23;20076;-94
2023/09/29 09:15:26;;;;;;;8.77;4.18;;;;;;;22.43;51.39;93932.34;5935087;23;20038;-94
2023/09/29 09:18:03;;;;;;;5.30;3.92;;;;;;;22.44;51.30;93933.06;5932477;23;20390;-96
2023/09/29 09:21:14;;;;;;;4.57;3.45;;;;;;;22.44;51.09;93941.34;5982679;23;20033;-95
2023/09/29 09:24:38;;;;;;;8.55;4.05;;;;;;;22.43;51.35;93937.09;5912441;23;20044;-93
2023/09/29 09:36:59;;;;;;;7.53;4.53;;;;;;;22.42;51.35;93935.63;6098665;23;20204;-93
2023/09/29 09:39:38;;;;;;;5.72;4.50;;;;;;;22.41;51.40;93939.63;6051239;23;20099;-94
2023/09/29 09:43:05;;;;;;;6.95;3.80;;;;;;;22.41;51.36;93937.63;6058924;23;20069;-95
2023/09/29 09:48:07;;;;;;;5.13;4.20;;;;;;;22.43;51.33;93923.31;6148558;23;20021;-92
2023/09/29 09:50:36;;;;;;;5.78;4.18;;;;;;;22.42;51.52;93935.63;6040130;23;20453;-94
2023/09/29 09:53:02;;;;;;;11.38;4.13;;;;;;;22.43;51.47;93934.34;6008724;23;20027;-95
2023/09/29 09:55:36;;;;;;;6.38;3.92;;;;;;;22.43;51.49;93937.84;5984029;23;20019;-94
2023/09/29 09:58:10;;;;;;;5.43;3.95;;;;;;;22.45;51.14;93935.31;5962286;23;20072;-92
2023/09/29 10:00:40;;;;;;;8.05;4.25;;;;;;;22.45;51.28;93923.53;5954631;23;20129;-93
2023/09/29 10:03:11;;;;;;;13.88;4.25;;;;;;;22.47;51.68;93938.28;5989293;23;20031;-94
2023/09/29 10:05:40;;;;;;;4.80;3.78;;;;;;;22.44;51.19;93936.56;5962685;23;20023;-96
2023/09/29 10:08:05;;;;;;;6.57;4.32;;;;;;;22.46;51.75;93938.81;5962087;23;20478;-96
2023/09/29 10:10:43;;;;;;;5.80;3.60;;;;;;;22.44;51.28;93931.06;5959881;23;20030;-94
2023/09/29 10:13:14;;;;;;;4.82;3.45;;;;;;;22.46;51.48;93938.81;5983909;23;20104;-92
2023/09/29 10:15:41;;;;;;;5.88;3.60;;;;;;;22.47;51.53;93946.56;5962931;23;20039;-91
2023/09/29 10:18:15;;;;;;;6.72;3.88;;;;;;;22.43;51.44;93926.81;5982865;23;20078;-92
2023/09/29 10:20:40;;;;;;;5.53;3.47;;;;;;;22.44;51.39;93936.56;5987582;23;20055;-93
2023/09/29 10:23:07;;;;;;;5.57;4.13;;;;;;;22.45;51.13;93932.56;6023326;23;20027;-95
2023/09/29 10:25:38;;;;;;;5.50;3.55;;;;;;;22.44;51.49;93936.56;6075024;23;20033;-94
2023/09/29 10:28:08;;;;;;;5.20;3.60;;;;;;;22.43;51.41;93929.59;6075715;23;20028;-93
2023/09/29 10:30:34;;;;;;;7.90;4.05;;;;;;;22.44;51.20;93935.84;6076961;23;20021;-94
2023/09/29 10:33:06;;;;;;;6.63;4.20;;;;;;;22.44;51.26;93939.34;6076119;23;20088;-93
2023/09/29 10:35:33;;;;;;;7.47;3.42;;;;;;;22.46;51.23;93925.03;6075825;23;20532;-93
2023/09/29 10:38:12;;;;;;;10.30;4.03;;;;;;;22.44;51.42;93930.31;6076434;23;20021;-93
2023/09/29 10:40:38;;;;;;;15.10;4.47;;;;;;;22.44;51.36;93922.06;6079475;23;20397;-94
2023/09/29 10:43:04;;;;;;;8.20;4.55;;;;;;;22.45;51.34;93926.31;6075676;23;20109;-93
2023/09/29 10:45:39;;;;;;;6.57;3.90;;;;;;;22.44;51.45;93920.03;6076073;23;20048;-93
2023/09/29 10:48:07;;;;;;;10.32;4.63;;;;;;;22.43;51.35;93915.06;6076452;23;20030;-94
2023/09/29 10:50:41;;;;;;;6.68;4.72;;;;;;;22.40;51.67;93916.84;6075069;23;20009;-93
2023/09/29 10:53:07;;;;;;;5.15;3.10;;;;;;;22.41;51.29;93912.81;6100102;23;20480;-93
2023/09/29 10:55:35;;;;;;;4.82;4.07;;;;;;;22.40;51.66;93907.84;6099554;23;20049;-95
2023/09/29 10:58:00;;;;;;;5.63;3.70;;;;;;;22.40;51.67;93905.09;6099803;23;20013;-92
2023/09/29 11:00:26;;;;;;;5.35;3.88;;;;;;;22.40;51.74;93910.59;6075563;23;20018;-95
2023/09/29 11:02:52;;;;;;;6.47;3.65;;;;;;;22.39;51.52;93904.34;6075937;23;20024;-93
2023/09/29 11:05:20;;;;;;;8.50;4.13;;;;;;;22.39;51.55;93901.59;6099208;23;20024;-92
2023/09/29 11:07:50;;;;;;;5.32;3.83;;;;;;;22.39;51.48;93898.09;6075722;23;20025;-93
2023/09/29 11:10:17;;;;;;;5.80;3.22;;;;;;;22.39;51.56;93898.84;6075801;23;20022;-94
2023/09/29 11:12:46;;;;;;;6.88;3.90;;;;;;;22.38;51.67;93888.34;6075424;23;20021;-94
2023/09/29 11:15:12;;;;;;;6.30;4.20;;;;;;;22.39;51.43;93901.59;6100218;23;20017;-94
2023/09/29 11:17:44;;;;;;;4.38;3.50;;;;;;;22.37;51.42;93884.84;6075192;23;20047;-95
2023/09/29 11:20:16;;;;;;;6.57;3.70;;;;;;;22.38;51.30;93899.34;6075104;23;20018;-93
2023/09/29 11:22:43;;;;;;;5.55;4.10;;;;;;;22.39;51.49;93889.81;6077484;23;20017;-94
2023/09/29 11:25:18;;;;;;;5.70;3.13;;;;;;;22.36;51.70;93891.63;6099379;23;20030;-93
2023/09/29 11:27:50;;;;;;;5.82;3.47;;;;;;;22.37;51.56;93895.84;6075788;23;20010;-93
2023/09/29 11:30:24;;;;;;;7.28;4.25;;;;;;;22.38;51.51;93888.34;6074031;23;20131;-92
2023/09/29 11:32:50;;;;;;;5.57;3.85;;;;;;;22.37;51.62;93884.09;6102873;23;20025;-95
2023/09/29 11:35:16;;;;;;;6.53;4.38;;;;;;;22.37;51.62;93881.34;6060205;23;20029;-92
2023/09/29 11:37:43;;;;;;;5.45;4.10;;;;;;;22.38;51.56;93885.59;6076898;23;20017;-95
2023/09/29 11:40:12;;;;;;;7.63;4.63;;;;;;;22.37;51.65;93882.09;6077121;23;20018;-92
2023/09/29 11:42:39;;;;;;;7.40;4.30;;;;;;;22.36;51.53;93886.09;6079228;23;20475;-95
2023/09/29 11:45:08;;;;;;;6.03;4.03;;;;;;;22.37;51.49;93876.56;6077406;23;20018;-92
2023/09/29 11:47:36;;;;;;;7.57;4.75;;;;;;;22.36;51.76;93883.34;6074364;23;20102;-95